EVLA/LPX METAR and TAF weather

Enter ICAO airport designator
Station Type Date Time Source
EVLA METAR 2022/11/27 08:20 UTC NOAA

EVLA 270820Z AUTO 00000KT 6000 -RA FEW014/// SCT017/// OVC024/// 00/M00 Q1027


Station Type Date Time Source
EVLA Decoded METAR 2022/11/27 08:20 UTC NOAA

Liepaja International Airport, Latvia (EVLA) 56-31N 021-05E
Nov 27, 2022 - 03:20 AM EST / 2022.11.27 0820 UTC
Wind: Calm:0
Visibility: 3 mile(s):0
Sky conditions: overcast
Weather: light rain
Temperature: 32 F (0 C)
Dew Point: 32 F (0 C)
Relative Humidity: 100%
Pressure (altimeter): 30.33 in. Hg (1027 hPa)
ob: EVLA 270820Z AUTO 00000KT 6000 -RA FEW014/// SCT017/// OVC024/// 00/M00 Q1027
cycle: 8

Station Type Date Time Source
EVLA TAF 2022/11/27 09:06 UTC NOAA

TAF TAF EVLA 270805Z 2709/2809 12005KT 6000 -SNRA OVC015
TEMPO 2709/2712 2000 SNRA -FZDZ BKN005 OVC015
BECMG 2712/2714 OVC012
TEMPO 2714/2809 BKN004 OVC012

Example: see airport list